Time;durP1;ratioP1;P1;durP2;ratioP2;P2;SDS_P1;SDS_P2;PMS_P1;PMS_P2;Temp;Humidity;BMP_temperature;BMP_pressure;BME280_temperature;BME280_humidity;BME280_pressure;Samples;Min_cycle;Max_cycle;Signal;HPM_P1;HPM_P2
2021/05/16 00:01:02;;;;;;;1.23;0.90;;;9.80;99.90;;;;;;4159827;28;20462;-77
2021/05/16 00:03:05;;;;;;;2.17;1.03;;;9.80;99.90;;;;;;4159503;28;20317;-77
2021/05/16 00:05:07;;;;;;;1.57;1.10;;;9.80;99.90;;;;;;4160704;28;20607;-77
2021/05/16 00:07:09;;;;;;;2.60;1.17;;;9.80;99.90;;;;;;4153103;28;20566;-76
2021/05/16 00:09:10;;;;;;;1.73;0.90;;;9.80;99.90;;;;;;4156240;28;20380;-78
2021/05/16 00:11:11;;;;;;;2.87;1.03;;;9.80;99.90;;;;;;4160773;28;20215;-77
2021/05/16 00:13:12;;;;;;;2.23;1.23;;;9.80;99.90;;;;;;4158889;28;20215;-77
2021/05/16 00:15:16;;;;;;;1.60;1.20;;;9.80;99.90;;;;;;4155238;28;20310;-76
2021/05/16 00:17:17;;;;;;;2.03;1.10;;;9.80;99.90;;;;;;4151776;28;20682;-76
2021/05/16 00:19:19;;;;;;;2.00;1.30;;;9.80;99.90;;;;;;4160080;28;20293;-78
2021/05/16 00:21:20;;;;;;;2.23;1.37;;;9.80;99.90;;;;;;4151850;28;20207;-77
2021/05/16 00:23:21;;;;;;;2.60;1.37;;;9.80;99.90;;;;;;4145546;28;20223;-77
2021/05/16 00:25:24;;;;;;;1.63;1.20;;;9.70;99.90;;;;;;4155441;28;20211;-76
2021/05/16 00:27:25;;;;;;;3.90;1.33;;;9.70;99.90;;;;;;4154104;28;20291;-77
2021/05/16 00:29:26;;;;;;;2.73;1.60;;;9.70;99.90;;;;;;4144298;28;20211;-76
2021/05/16 00:31:27;;;;;;;2.47;1.03;;;9.70;99.90;;;;;;4144769;28;20470;-77
2021/05/16 00:33:28;;;;;;;1.30;1.10;;;9.70;99.90;;;;;;4144481;28;20232;-76
2021/05/16 00:35:32;;;;;;;6.93;1.50;;;9.70;99.90;;;;;;4148936;28;20583;-76
2021/05/16 00:37:33;;;;;;;4.80;1.20;;;9.70;99.90;;;;;;4147429;28;20635;-76
2021/05/16 00:39:34;;;;;;;1.40;1.10;;;9.70;99.90;;;;;;4155973;28;20224;-76
2021/05/16 00:41:36;;;;;;;2.17;1.20;;;9.70;99.90;;;;;;4153695;28;20630;-76
2021/05/16 00:43:37;;;;;;;1.70;1.10;;;9.70;99.90;;;;;;4163951;28;20621;-78
2021/05/16 00:45:38;;;;;;;2.63;1.37;;;9.70;99.90;;;;;;4157536;28;20204;-76
2021/05/16 00:47:45;;;;;;;1.63;1.20;;;9.70;99.90;;;;;;4146587;28;20478;-76
2021/05/16 00:49:46;;;;;;;2.27;1.20;;;9.70;99.90;;;;;;4146516;28;20212;-76
2021/05/16 00:51:48;;;;;;;1.37;1.10;;;9.70;99.90;;;;;;4155565;28;20477;-76
2021/05/16 00:53:49;;;;;;;5.37;2.30;;;9.70;99.90;;;;;;4179921;23;20499;-82
2021/05/16 00:55:51;;;;;;;6.10;2.63;;;9.70;99.90;;;;;;4181199;28;20461;-80
2021/05/16 00:57:52;;;;;;;4.03;1.87;;;9.70;99.90;;;;;;4186465;28;20489;-80
2021/05/16 00:59:53;;;;;;;1.97;1.30;;;9.70;99.90;;;;;;4190925;28;20460;-81
2021/05/16 01:01:56;;;;;;;2.53;1.30;;;9.70;99.90;;;;;;4188316;28;20457;-80
2021/05/16 01:03:58;;;;;;;2.10;1.40;;;9.60;99.90;;;;;;4185920;28;21003;-80
2021/05/16 01:05:59;;;;;;;1.07;0.90;;;9.60;99.90;;;;;;4175477;28;20460;-80
2021/05/16 01:08:02;;;;;;;1.90;1.10;;;9.60;99.90;;;;;;4172424;28;20453;-80
2021/05/16 01:10:05;;;;;;;2.00;1.20;;;9.60;99.90;;;;;;4173397;28;20454;-80
2021/05/16 01:12:08;;;;;;;1.93;1.20;;;9.60;99.90;;;;;;4173656;28;20203;-81
2021/05/16 01:14:10;;;;;;;3.33;1.10;;;9.60;99.90;;;;;;4175048;28;20704;-80
2021/05/16 01:16:11;;;;;;;1.30;1.00;;;9.60;99.90;;;;;;4175763;28;20454;-81
2021/05/16 01:18:13;;;;;;;1.33;1.03;;;9.60;99.90;;;;;;4169260;28;20218;-81
2021/05/16 01:20:17;;;;;;;1.80;1.23;;;9.60;99.90;;;;;;4172923;28;20441;-81
2021/05/16 01:22:19;;;;;;;1.10;1.00;;;9.50;99.90;;;;;;4172567;28;20450;-81
2021/05/16 01:24:22;;;;;;;3.17;1.30;;;9.50;99.90;;;;;;4175812;28;20245;-81
2021/05/16 01:26:23;;;;;;;1.27;1.13;;;9.50;99.90;;;;;;4173668;28;20488;-81
2021/05/16 01:28:24;;;;;;;1.27;1.00;;;9.60;99.90;;;;;;4171959;28;21015;-81
2021/05/16 01:30:26;;;;;;;2.20;1.00;;;9.60;99.90;;;;;;4173696;28;20819;-81
2021/05/16 01:32:27;;;;;;;3.43;1.40;;;9.60;99.90;;;;;;4170958;28;20473;-81
2021/05/16 01:34:29;;;;;;;1.53;1.13;;;9.60;99.90;;;;;;4174245;28;20473;-81
2021/05/16 01:36:30;;;;;;;2.20;1.37;;;9.60;99.90;;;;;;4173411;28;20458;-81
2021/05/16 01:38:32;;;;;;;2.07;1.30;;;9.60;99.90;;;;;;4168904;28;20485;-80
2021/05/16 01:40:34;;;;;;;1.67;1.10;;;9.60;99.90;;;;;;4168186;28;20667;-81
2021/05/16 01:42:39;;;;;;;1.70;1.20;;;9.70;99.90;;;;;;4170483;28;20206;-80
2021/05/16 01:44:40;;;;;;;2.33;1.00;;;9.70;99.90;;;;;;4170272;28;20277;-81
2021/05/16 01:46:45;;;;;;;1.10;0.90;;;9.60;99.90;;;;;;4168996;28;20950;-81
2021/05/16 01:48:46;;;;;;;1.73;1.13;;;9.70;99.90;;;;;;4164545;28;20542;-80
2021/05/16 01:50:47;;;;;;;1.97;1.40;;;9.70;99.90;;;;;;4168290;28;20200;-80
2021/05/16 01:52:50;;;;;;;1.07;0.97;;;9.70;99.90;;;;;;4170785;28;20199;-80
2021/05/16 01:54:52;;;;;;;3.23;1.20;;;9.70;99.90;;;;;;4168816;28;20493;-81
2021/05/16 01:56:54;;;;;;;2.00;1.10;;;9.70;99.90;;;;;;4169667;28;20207;-80
2021/05/16 01:58:56;;;;;;;1.50;1.00;;;9.70;99.90;;;;;;4162142;28;20230;-80
2021/05/16 02:00:58;;;;;;;2.93;1.40;;;9.70;99.90;;;;;;4169751;28;20230;-81
2021/05/16 02:03:00;;;;;;;2.07;1.30;;;9.70;99.90;;;;;;4167910;28;20477;-79
2021/05/16 02:05:01;;;;;;;2.20;1.20;;;9.70;99.90;;;;;;4167520;28;20485;-79
2021/05/16 02:07:03;;;;;;;1.10;1.00;;;9.70;99.90;;;;;;4164784;28;20892;-79
2021/05/16 02:09:05;;;;;;;2.20;1.40;;;9.70;99.90;;;;;;4167575;28;20458;-79
2021/05/16 02:11:08;;;;;;;2.83;1.10;;;9.80;99.90;;;;;;4167561;28;20203;-79
2021/05/16 02:13:10;;;;;;;2.67;1.00;;;9.70;99.90;;;;;;4166480;28;20461;-79
2021/05/16 02:15:12;;;;;;;1.53;1.00;;;9.70;99.90;;;;;;4163875;28;20223;-79
2021/05/16 02:17:15;;;;;;;1.80;1.10;;;9.70;99.90;;;;;;4168057;28;20211;-79
2021/05/16 02:19:16;;;;;;;1.50;1.00;;;9.70;99.90;;;;;;4167905;28;20309;-79
2021/05/16 02:21:18;;;;;;;1.07;0.97;;;9.70;99.90;;;;;;4167072;28;20207;-79
2021/05/16 02:23:19;;;;;;;1.13;1.03;;;9.80;99.90;;;;;;4167969;28;20270;-79
2021/05/16 02:25:21;;;;;;;1.20;1.10;;;9.80;99.90;;;;;;4169883;28;20230;-79
2021/05/16 02:27:23;;;;;;;2.90;1.20;;;9.80;99.90;;;;;;4167927;28;20203;-79
2021/05/16 02:29:24;;;;;;;1.83;1.10;;;9.80;99.90;;;;;;4170978;28;20211;-79
2021/05/16 02:31:25;;;;;;;1.27;0.93;;;9.80;99.90;;;;;;4167641;28;20639;-79
2021/05/16 02:33:26;;;;;;;2.43;1.10;;;9.80;99.90;;;;;;4167219;28;20207;-79
2021/05/16 02:35:27;;;;;;;3.83;1.23;;;9.80;99.90;;;;;;4169466;28;20458;-79
2021/05/16 02:37:29;;;;;;;1.20;1.10;;;9.80;99.90;;;;;;4166706;28;20497;-79
2021/05/16 02:39:30;;;;;;;2.60;1.30;;;9.80;99.90;;;;;;4163711;28;20249;-79
2021/05/16 02:41:31;;;;;;;2.50;1.50;;;9.90;99.90;;;;;;4162865;28;20199;-79
2021/05/16 02:43:33;;;;;;;2.00;1.37;;;9.90;99.90;;;;;;4163636;28;20226;-79
2021/05/16 02:45:34;;;;;;;3.10;1.10;;;10.00;99.90;;;;;;4163717;28;20604;-79
2021/05/16 02:47:36;;;;;;;2.60;1.20;;;10.00;99.90;;;;;;4163290;28;20484;-79
2021/05/16 02:49:37;;;;;;;2.27;1.30;;;10.00;99.90;;;;;;4164162;28;20462;-79
2021/05/16 02:51:39;;;;;;;1.93;1.23;;;10.00;99.90;;;;;;4166750;28;20962;-79
2021/05/16 02:53:40;;;;;;;1.77;1.30;;;10.10;99.90;;;;;;4162093;28;20562;-79
2021/05/16 02:55:41;;;;;;;2.67;1.50;;;10.00;99.90;;;;;;4163106;28;20218;-79
2021/05/16 02:57:43;;;;;;;1.60;1.20;;;10.00;99.90;;;;;;4167174;28;20199;-79
2021/05/16 02:59:45;;;;;;;3.00;1.10;;;10.00;99.90;;;;;;4166253;28;20886;-80
2021/05/16 03:01:49;;;;;;;2.17;1.10;;;10.00;99.90;;;;;;4164038;28;20215;-79
2021/05/16 03:03:50;;;;;;;2.00;1.27;;;10.00;99.90;;;;;;4166669;28;20288;-79
2021/05/16 03:05:51;;;;;;;1.90;1.70;;;10.00;99.90;;;;;;4166504;28;20230;-79
2021/05/16 03:07:52;;;;;;;1.63;1.20;;;10.00;99.90;;;;;;4167538;28;20203;-79
2021/05/16 03:09:54;;;;;;;2.60;1.30;;;10.00;99.90;;;;;;4165941;28;20207;-80
2021/05/16 03:11:55;;;;;;;3.30;1.23;;;9.90;99.90;;;;;;4166774;28;20548;-80
2021/05/16 03:13:57;;;;;;;1.77;1.30;;;9.90;99.90;;;;;;4166725;28;20233;-80
2021/05/16 03:15:59;;;;;;;2.33;1.57;;;9.90;99.90;;;;;;4166761;28;20226;-79
2021/05/16 03:18:00;;;;;;;1.23;1.13;;;10.00;99.90;;;;;;4165562;28;20234;-79
2021/05/16 03:20:01;;;;;;;3.40;1.30;;;9.90;99.90;;;;;;4166017;28;20250;-79
2021/05/16 03:22:03;;;;;;;2.57;1.00;;;9.90;99.90;;;;;;4166413;28;20507;-79
2021/05/16 03:24:06;;;;;;;2.57;1.40;;;9.90;99.90;;;;;;4165719;28;20569;-79
2021/05/16 03:26:07;;;;;;;2.70;1.20;;;9.80;99.90;;;;;;4163392;28;20669;-79
2021/05/16 03:28:08;;;;;;;2.77;1.27;;;9.80;99.90;;;;;;4166480;28;20461;-79
2021/05/16 03:30:12;;;;;;;1.73;1.20;;;9.80;99.90;;;;;;4165501;28;20207;-79
2021/05/16 03:32:14;;;;;;;2.27;1.00;;;9.80;99.90;;;;;;4166136;28;20694;-79
2021/05/16 03:34:15;;;;;;;1.73;1.20;;;9.70;99.90;;;;;;4160353;28;20552;-79
2021/05/16 03:36:16;;;;;;;1.23;0.90;;;9.80;99.90;;;;;;4167470;28;20465;-79
2021/05/16 03:38:18;;;;;;;1.87;1.10;;;9.70;99.90;;;;;;4165866;28;20457;-79
2021/05/16 03:40:19;;;;;;;1.50;1.00;;;9.70;99.90;;;;;;4165486;28;20268;-79
2021/05/16 03:42:20;;;;;;;2.63;1.30;;;9.70;99.90;;;;;;4158617;28;20215;-79
2021/05/16 03:44:22;;;;;;;1.80;1.07;;;9.80;99.90;;;;;;4166517;28;21014;-79
2021/05/16 03:46:23;;;;;;;1.10;1.00;;;9.80;99.90;;;;;;4166831;28;20609;-79
2021/05/16 03:48:25;;;;;;;1.23;0.90;;;9.80;99.90;;;;;;4166300;28;20585;-79
2021/05/16 03:50:26;;;;;;;1.83;1.10;;;9.80;99.90;;;;;;4165047;28;20672;-79
2021/05/16 03:52:28;;;;;;;1.20;1.03;;;9.70;99.90;;;;;;4166745;28;20660;-79
2021/05/16 03:54:29;;;;;;;2.30;0.90;;;9.70;99.90;;;;;;4162760;28;20317;-79
2021/05/16 03:56:30;;;;;;;2.40;1.03;;;9.80;99.90;;;;;;4165734;28;20264;-79
2021/05/16 03:58:32;;;;;;;0.80;0.80;;;9.80;99.90;;;;;;4165926;28;20214;-79
2021/05/16 04:00:33;;;;;;;0.97;0.90;;;9.80;99.90;;;;;;4164134;28;20211;-79
2021/05/16 04:02:34;;;;;;;2.27;1.20;;;9.80;99.90;;;;;;4165887;28;20206;-79
2021/05/16 04:04:36;;;;;;;1.20;0.73;;;9.80;99.90;;;;;;4158797;28;20482;-79
2021/05/16 04:06:37;;;;;;;0.97;0.80;;;9.80;99.90;;;;;;4166409;28;20211;-79
2021/05/16 04:08:39;;;;;;;1.40;0.80;;;9.80;99.90;;;;;;4162284;28;20218;-79
2021/05/16 04:10:40;;;;;;;1.13;0.70;;;9.80;99.90;;;;;;4165587;28;20257;-79
2021/05/16 04:12:41;;;;;;;1.10;0.73;;;9.80;99.90;;;;;;4162208;28;20222;-79
2021/05/16 04:14:44;;;;;;;1.10;0.80;;;9.80;99.90;;;;;;4165526;28;20238;-79
2021/05/16 04:16:45;;;;;;;1.27;0.67;;;9.80;99.90;;;;;;4166167;28;20210;-79
2021/05/16 04:18:46;;;;;;;1.90;0.80;;;9.80;99.90;;;;;;4166104;28;20203;-79
2021/05/16 04:20:48;;;;;;;2.43;1.03;;;9.80;99.90;;;;;;4163539;28;20474;-79
2021/05/16 04:22:50;;;;;;;1.00;0.70;;;9.80;99.90;;;;;;4166162;28;20653;-79
2021/05/16 04:24:53;;;;;;;0.83;0.70;;;9.80;99.90;;;;;;4166059;28;20223;-79
2021/05/16 04:26:54;;;;;;;1.07;0.60;;;9.80;99.90;;;;;;4166402;28;20994;-79
2021/05/16 04:28:55;;;;;;;0.60;0.60;;;9.80;99.90;;;;;;4164240;28;21038;-79
2021/05/16 04:30:56;;;;;;;2.67;0.53;;;9.80;99.90;;;;;;4166415;28;20450;-79
2021/05/16 04:32:58;;;;;;;0.70;0.60;;;9.90;99.90;;;;;;4165620;28;20484;-79
2021/05/16 04:34:59;;;;;;;0.63;0.60;;;9.90;99.90;;;;;;4166022;28;20234;-79
2021/05/16 04:37:01;;;;;;;0.50;0.50;;;9.90;99.90;;;;;;4166648;28;20466;-79
2021/05/16 04:39:05;;;;;;;0.50;0.40;;;9.90;99.90;;;;;;4165811;28;20835;-79
2021/05/16 04:41:06;;;;;;;0.50;0.50;;;9.90;99.90;;;;;;4161606;28;20469;-80
2021/05/16 04:43:12;;;;;;;0.87;0.60;;;9.90;99.90;;;;;;4166503;28;20494;-80
2021/05/16 04:45:13;;;;;;;0.83;0.50;;;9.90;99.90;;;;;;4166693;28;20474;-80
2021/05/16 04:47:15;;;;;;;0.73;0.50;;;9.90;99.90;;;;;;4163842;28;20219;-81
2021/05/16 04:49:16;;;;;;;0.50;0.50;;;9.90;99.90;;;;;;4166209;28;20207;-80
2021/05/16 04:51:17;;;;;;;2.50;0.57;;;9.80;99.90;;;;;;4166753;28;20457;-80
2021/05/16 04:53:19;;;;;;;1.50;0.70;;;9.90;99.90;;;;;;4165489;28;20210;-80
2021/05/16 04:55:21;;;;;;;0.83;0.53;;;9.90;99.90;;;;;;4165220;28;21010;-80
2021/05/16 04:57:22;;;;;;;0.60;0.50;;;9.90;99.90;;;;;;4159750;28;20203;-81
2021/05/16 04:59:23;;;;;;;0.77;0.50;;;9.90;99.90;;;;;;4165110;28;20199;-80
2021/05/16 05:01:27;;;;;;;1.77;0.80;;;10.00;99.90;;;;;;4165614;28;20222;-80
2021/05/16 05:03:32;;;;;;;1.40;0.60;;;10.00;99.90;;;;;;4165541;28;20289;-81
2021/05/16 05:05:34;;;;;;;1.40;0.70;;;10.00;99.90;;;;;;4165513;28;20575;-81
2021/05/16 05:07:35;;;;;;;2.43;0.70;;;10.00;99.90;;;;;;4158289;28;20474;-80
2021/05/16 05:09:38;;;;;;;0.70;0.70;;;10.10;99.90;;;;;;4165865;28;20207;-82
2021/05/16 05:11:39;;;;;;;0.97;0.70;;;10.10;99.90;;;;;;4165530;28;20458;-80
2021/05/16 05:13:41;;;;;;;0.87;0.80;;;10.10;99.90;;;;;;4163850;28;20454;-80
2021/05/16 05:15:42;;;;;;;0.87;0.70;;;10.20;99.90;;;;;;4160556;28;20471;-80
2021/05/16 05:17:43;;;;;;;0.50;0.50;;;10.20;99.90;;;;;;4162760;28;20203;-80
2021/05/16 05:19:44;;;;;;;0.90;0.70;;;10.20;99.90;;;;;;4165116;28;20458;-81
2021/05/16 05:21:46;;;;;;;2.20;0.80;;;10.30;99.90;;;;;;4165935;28;20740;-80
2021/05/16 05:23:47;;;;;;;0.70;0.63;;;10.30;99.90;;;;;;4165349;28;20254;-80
2021/05/16 05:25:49;;;;;;;1.50;0.70;;;10.40;99.90;;;;;;4152118;28;20724;-80
2021/05/16 05:27:50;;;;;;;1.33;0.60;;;10.40;99.90;;;;;;4149506;28;20258;-80
2021/05/16 05:29:52;;;;;;;0.80;0.60;;;10.40;99.90;;;;;;4155197;28;20211;-80
2021/05/16 05:31:53;;;;;;;0.70;0.70;;;10.50;99.90;;;;;;4165907;28;20576;-81
2021/05/16 05:33:54;;;;;;;2.10;0.90;;;10.50;99.90;;;;;;4158804;28;20662;-80
2021/05/16 05:35:55;;;;;;;1.07;0.80;;;10.50;99.90;;;;;;4165136;28;20263;-81
2021/05/16 05:37:57;;;;;;;0.80;0.80;;;10.60;99.90;;;;;;4165266;28;20204;-80
2021/05/16 05:39:58;;;;;;;0.97;0.70;;;10.60;99.90;;;;;;4164852;28;20203;-80
2021/05/16 05:42:00;;;;;;;4.23;0.80;;;10.70;99.90;;;;;;4162760;28;20586;-81
2021/05/16 05:44:02;;;;;;;0.90;0.67;;;10.70;99.90;;;;;;4167327;28;20228;-80
2021/05/16 05:46:04;;;;;;;1.67;0.60;;;10.80;99.90;;;;;;4171657;28;20207;-80
2021/05/16 05:48:05;;;;;;;1.10;0.80;;;10.90;99.90;;;;;;4173614;28;20223;-80
2021/05/16 05:50:07;;;;;;;0.87;0.73;;;10.90;99.90;;;;;;4162688;28;20581;-80
2021/05/16 05:52:09;;;;;;;1.27;0.73;;;11.00;99.90;;;;;;4164588;28;20208;-81
2021/05/16 05:54:10;;;;;;;1.60;0.60;;;11.00;99.90;;;;;;4164894;28;20266;-81
2021/05/16 05:56:11;;;;;;;1.67;0.70;;;11.10;99.90;;;;;;4165211;28;20240;-81
2021/05/16 05:58:13;;;;;;;2.30;1.00;;;11.10;99.90;;;;;;4166007;28;20586;-81
2021/05/16 06:00:16;;;;;;;1.00;0.57;;;11.30;99.90;;;;;;4162893;28;20227;-80
2021/05/16 06:02:17;;;;;;;1.53;0.77;;;11.20;99.90;;;;;;4164016;28;20207;-81
2021/05/16 06:04:18;;;;;;;1.50;0.70;;;11.30;99.90;;;;;;4164424;28;20626;-80
2021/05/16 06:06:19;;;;;;;1.80;0.70;;;11.20;99.90;;;;;;4164197;28;20212;-81
2021/05/16 06:08:21;;;;;;;2.30;1.10;;;11.20;99.90;;;;;;4163056;28;20219;-81
2021/05/16 06:10:23;;;;;;;2.63;0.80;;;11.20;99.90;;;;;;4164298;28;20204;-81
2021/05/16 06:12:25;;;;;;;2.17;0.90;;;11.20;99.90;;;;;;4163749;28;20205;-82
2021/05/16 06:14:27;;;;;;;1.00;0.57;;;11.10;99.90;;;;;;4164287;28;20648;-81
2021/05/16 06:16:29;;;;;;;4.67;0.80;;;11.10;99.90;;;;;;4163907;28;20219;-80
2021/05/16 06:18:30;;;;;;;1.23;0.70;;;11.10;99.90;;;;;;4164248;28;20215;-80
2021/05/16 06:20:32;;;;;;;2.53;0.70;;;10.90;99.90;;;;;;4166877;28;20203;-81
2021/05/16 06:22:34;;;;;;;4.27;0.80;;;11.00;99.90;;;;;;4167954;28;20215;-81
2021/05/16 06:24:35;;;;;;;1.63;0.77;;;10.90;99.90;;;;;;4169087;28;20618;-79
2021/05/16 06:26:38;;;;;;;2.73;0.83;;;11.00;99.90;;;;;;4161968;28;20230;-81
2021/05/16 06:28:39;;;;;;;4.40;0.77;;;11.00;99.90;;;;;;4170630;28;20211;-81
2021/05/16 06:30:42;;;;;;;2.77;0.90;;;11.00;99.90;;;;;;4165349;28;20218;-80
2021/05/16 06:32:43;;;;;;;2.83;0.90;;;11.00;99.90;;;;;;4170192;28;20214;-80
2021/05/16 06:34:44;;;;;;;2.63;0.70;;;11.00;99.90;;;;;;4170424;28;20223;-81
2021/05/16 06:36:45;;;;;;;2.53;0.70;;;11.00;99.90;;;;;;4169199;28;20553;-81
2021/05/16 06:38:47;;;;;;;2.07;0.90;;;10.90;99.90;;;;;;4169125;28;20212;-80
2021/05/16 06:40:48;;;;;;;3.70;1.00;;;11.10;99.90;;;;;;4169499;28;20282;-81
2021/05/16 06:42:49;;;;;;;1.57;0.83;;;11.10;99.90;;;;;;4169470;28;20230;-81
2021/05/16 06:44:50;;;;;;;2.50;1.00;;;11.20;99.90;;;;;;4169202;28;20267;-80
2021/05/16 06:46:52;;;;;;;0.90;0.57;;;11.30;99.90;;;;;;4168703;28;20211;-80
2021/05/16 06:48:54;;;;;;;3.20;0.90;;;11.40;99.90;;;;;;4167943;28;20211;-81
2021/05/16 06:50:55;;;;;;;2.30;0.60;;;11.40;99.90;;;;;;4169609;28;20664;-80
2021/05/16 06:52:57;;;;;;;3.87;1.00;;;11.40;99.90;;;;;;4168501;28;20208;-81
2021/05/16 06:54:58;;;;;;;2.07;0.97;;;11.50;99.90;;;;;;4166406;28;20278;-80
2021/05/16 06:56:59;;;;;;;3.20;0.77;;;11.50;99.90;;;;;;4164608;28;20204;-80
2021/05/16 06:59:00;;;;;;;2.13;0.80;;;11.60;99.90;;;;;;4164063;28;20575;-82
2021/05/16 07:01:01;;;;;;;2.53;0.63;;;11.70;99.90;;;;;;4164160;28;20211;-81
2021/05/16 07:03:04;;;;;;;3.83;0.80;;;11.80;99.90;;;;;;4163654;28;20207;-80
2021/05/16 07:05:06;;;;;;;5.37;1.23;;;12.00;99.90;;;;;;4163608;28;20227;-80
2021/05/16 07:07:07;;;;;;;5.70;1.00;;;12.20;99.90;;;;;;4164863;28;20670;-80
2021/05/16 07:09:08;;;;;;;4.90;1.00;;;12.30;99.90;;;;;;4163186;28;20231;-80
2021/05/16 07:11:10;;;;;;;3.37;0.93;;;12.40;99.90;;;;;;4164031;28;20735;-80
2021/05/16 07:13:12;;;;;;;3.33;1.00;;;12.40;99.90;;;;;;4164004;28;20271;-81
2021/05/16 07:15:13;;;;;;;2.27;0.70;;;12.40;99.90;;;;;;4163218;28;20236;-80
2021/05/16 07:17:15;;;;;;;5.57;1.40;;;12.40;99.90;;;;;;4163814;28;20217;-80
2021/05/16 07:19:17;;;;;;;3.80;0.90;;;12.30;99.90;;;;;;4163479;28;20214;-80
2021/05/16 07:21:18;;;;;;;3.40;1.00;;;12.30;99.90;;;;;;4166213;28;20570;-81
2021/05/16 07:23:19;;;;;;;4.23;1.03;;;12.30;99.90;;;;;;4168761;28;20231;-80
2021/05/16 07:25:21;;;;;;;4.67;1.00;;;12.30;99.90;;;;;;4168495;28;20228;-81
2021/05/16 07:27:22;;;;;;;4.50;1.10;;;12.30;99.90;;;;;;4168921;28;20213;-81
2021/05/16 07:29:23;;;;;;;3.40;0.90;;;12.40;99.90;;;;;;4183222;28;20221;-80
2021/05/16 07:31:24;;;;;;;2.70;0.83;;;12.40;99.90;;;;;;4171364;28;20224;-80
2021/05/16 07:33:25;;;;;;;6.33;1.00;;;12.40;99.90;;;;;;4170435;28;20280;-81
2021/05/16 07:35:27;;;;;;;4.47;0.80;;;12.40;99.90;;;;;;4167412;28;20220;-80
2021/05/16 07:37:29;;;;;;;3.37;1.00;;;12.50;99.90;;;;;;4166017;28;20210;-81
2021/05/16 07:39:30;;;;;;;3.73;1.40;;;12.60;99.60;;;;;;4170995;28;20200;-81
2021/05/16 07:41:31;;;;;;;6.40;1.57;;;12.70;99.50;;;;;;4172513;28;20224;-80
2021/05/16 07:43:33;;;;;;;3.17;1.77;;;12.90;99.60;;;;;;4171256;28;20244;-80
2021/05/16 07:45:35;;;;;;;2.67;1.10;;;12.90;99.30;;;;;;4170428;28;20217;-81
2021/05/16 07:47:37;;;;;;;3.53;1.27;;;13.00;99.10;;;;;;4171987;28;20269;-81
2021/05/16 07:49:38;;;;;;;3.23;1.50;;;13.00;99.50;;;;;;4172663;28;20624;-80
2021/05/16 07:51:41;;;;;;;3.50;1.53;;;13.00;99.20;;;;;;4173444;28;20209;-80
2021/05/16 07:53:42;;;;;;;4.77;1.20;;;13.10;99.00;;;;;;4172710;28;20271;-80
2021/05/16 07:55:44;;;;;;;4.37;1.50;;;13.00;99.00;;;;;;4172004;28;20210;-81
2021/05/16 07:57:45;;;;;;;6.50;1.83;;;13.00;98.10;;;;;;4173725;28;20220;-81
2021/05/16 07:59:46;;;;;;;3.70;2.17;;;13.10;97.40;;;;;;4170335;28;20218;-81
2021/05/16 08:01:47;;;;;;;5.30;1.87;;;13.30;97.60;;;;;;4167399;28;20221;-81
2021/05/16 08:03:48;;;;;;;4.20;1.90;;;13.20;97.70;;;;;;4163872;28;20692;-80
2021/05/16 08:05:51;;;;;;;5.47;2.63;;;13.40;97.50;;;;;;4151898;28;20210;-81
2021/05/16 08:07:54;;;;;;;6.87;3.63;;;13.50;98.00;;;;;;4167536;28;20233;-81
2021/05/16 08:09:55;;;;;;;7.00;3.40;;;13.60;96.80;;;;;;4163164;28;20225;-80
2021/05/16 08:11:57;;;;;;;5.60;3.03;;;13.80;96.40;;;;;;4165289;28;20224;-80
2021/05/16 08:13:58;;;;;;;5.80;2.53;;;13.90;95.30;;;;;;4154091;28;20220;-80
2021/05/16 08:16:02;;;;;;;5.43;1.70;;;14.00;95.40;;;;;;4166592;28;20672;-80
2021/05/16 08:18:04;;;;;;;4.83;2.60;;;14.00;95.20;;;;;;4166405;28;20214;-81
2021/05/16 08:20:09;;;;;;;6.37;2.97;;;13.90;95.10;;;;;;4166548;28;20300;-81
2021/05/16 08:22:10;;;;;;;7.60;3.23;;;13.90;94.80;;;;;;4166720;28;20210;-80
2021/05/16 08:24:14;;;;;;;3.53;2.20;;;13.90;94.20;;;;;;4165793;28;20287;-80
2021/05/16 08:26:15;;;;;;;4.33;2.10;;;13.90;94.00;;;;;;4166210;28;20585;-80
2021/05/16 08:28:16;;;;;;;6.80;1.63;;;14.00;94.70;;;;;;4166039;28;20219;-81
2021/05/16 08:30:18;;;;;;;4.63;1.43;;;14.10;94.60;;;;;;4165888;28;20206;-81
2021/05/16 08:32:19;;;;;;;3.87;0.97;;;14.20;94.20;;;;;;4165954;28;20237;-80
2021/05/16 08:34:21;;;;;;;7.70;1.63;;;14.30;93.80;;;;;;4165486;28;20261;-81
2021/05/16 08:36:22;;;;;;;3.57;1.30;;;14.40;92.70;;;;;;4166058;28;20241;-80
2021/05/16 08:38:23;;;;;;;3.30;1.47;;;14.30;92.70;;;;;;4166310;28;20353;-81
2021/05/16 08:40:25;;;;;;;4.20;0.97;;;14.40;93.60;;;;;;4165799;28;20214;-81
2021/05/16 08:42:29;;;;;;;2.63;0.90;;;14.40;93.10;;;;;;4166299;28;20584;-80
2021/05/16 08:44:32;;;;;;;3.43;0.90;;;14.50;92.80;;;;;;4164854;28;20233;-80
2021/05/16 08:46:33;;;;;;;4.40;1.40;;;14.60;93.10;;;;;;4165702;28;20687;-81
2021/05/16 08:48:35;;;;;;;2.50;1.10;;;14.70;92.60;;;;;;4174425;28;20664;-81
2021/05/16 08:50:36;;;;;;;4.13;1.00;;;14.80;91.80;;;;;;4181116;28;20222;-82
2021/05/16 08:52:37;;;;;;;3.60;0.70;;;14.80;91.20;;;;;;4173403;28;20265;-78
2021/05/16 08:54:39;;;;;;;5.13;1.03;;;14.90;91.50;;;;;;4164801;28;20590;-80
2021/05/16 08:56:41;;;;;;;4.77;1.10;;;15.00;91.30;;;;;;4164747;28;20210;-78
2021/05/16 08:58:42;;;;;;;2.13;0.80;;;15.00;91.70;;;;;;4164636;28;20235;-81
2021/05/16 09:00:44;;;;;;;3.13;0.70;;;14.90;91.60;;;;;;4164612;28;20218;-78
2021/05/16 09:03:05;;;;;;;4.90;0.90;;;14.80;91.00;;;;;;4164757;28;20207;-81
2021/05/16 09:05:24;;;;;;;5.23;1.03;;;14.70;91.60;;;;;;4159183;28;20228;-81
2021/05/16 09:07:29;;;;;;;4.33;0.90;;;14.70;90.80;;;;;;4165709;28;20710;-82
2021/05/16 09:09:32;;;;;;;3.77;1.00;;;14.80;90.30;;;;;;4164931;28;20219;-80
2021/05/16 09:11:33;;;;;;;3.57;0.70;;;14.90;90.10;;;;;;4165184;28;20219;-80
2021/05/16 09:13:37;;;;;;;4.93;0.90;;;15.00;90.70;;;;;;4164528;28;20207;-80
2021/05/16 09:15:42;;;;;;;5.27;0.87;;;15.20;90.20;;;;;;4164631;28;20211;-81
2021/05/16 09:17:43;;;;;;;3.63;0.90;;;15.30;88.20;;;;;;4148382;28;20212;-81
2021/05/16 09:19:46;;;;;;;6.30;1.93;;;15.30;85.70;;;;;;4148220;28;20212;-81
2021/05/16 09:21:48;;;;;;;4.77;1.37;;;15.30;85.80;;;;;;4164530;28;20211;-81
2021/05/16 09:24:20;;;;;;;4.53;1.10;;;15.30;85.60;;;;;;4164478;28;20641;-81
2021/05/16 09:26:21;;;;;;;6.53;1.20;;;15.40;85.80;;;;;;4113755;28;20212;-81
2021/05/16 09:28:22;;;;;;;3.23;0.97;;;15.50;83.20;;;;;;4139089;28;20213;-81
2021/05/16 09:30:27;;;;;;;6.07;1.07;;;15.60;84.70;;;;;;4170345;28;20211;-81
2021/05/16 09:32:28;;;;;;;7.07;1.13;;;15.70;83.40;;;;;;4164445;28;20589;-78
2021/05/16 09:34:30;;;;;;;4.43;1.20;;;15.80;85.00;;;;;;4164290;28;20225;-81
2021/05/16 09:36:33;;;;;;;4.87;0.90;;;16.00;80.90;;;;;;4164358;28;20212;-78
2021/05/16 09:38:34;;;;;;;3.20;0.93;;;16.00;77.00;;;;;;4169519;28;20242;-81
2021/05/16 09:40:40;;;;;;;2.23;0.87;;;16.00;77.80;;;;;;4180424;28;20221;-78
2021/05/16 09:42:41;;;;;;;3.23;1.00;;;16.10;77.20;;;;;;4167164;28;20201;-81
2021/05/16 09:44:44;;;;;;;5.30;1.20;;;16.10;74.10;;;;;;4164090;28;20608;-81
2021/05/16 09:47:09;;;;;;;5.43;1.50;;;16.20;73.40;;;;;;4164654;28;20217;-81
2021/05/16 09:49:25;;;;;;;4.70;1.37;;;16.20;73.80;;;;;;4164001;28;20209;-81
2021/05/16 09:51:26;;;;;;;4.90;1.40;;;16.30;75.60;;;;;;4165509;28;20194;-81
2021/05/16 09:53:27;;;;;;;5.90;1.50;;;16.50;76.00;;;;;;4164019;28;20213;-81
2021/05/16 09:55:30;;;;;;;4.70;1.00;;;16.70;74.70;;;;;;4163965;28;20215;-81
2021/05/16 09:57:33;;;;;;;4.83;1.20;;;16.90;71.90;;;;;;4164597;28;20569;-81
2021/05/16 09:59:35;;;;;;;4.77;1.30;;;17.00;71.00;;;;;;4163670;28;20214;-81
2021/05/16 10:01:37;;;;;;;4.07;1.37;;;17.10;72.10;;;;;;4164381;28;20223;-81
2021/05/16 10:03:40;;;;;;;4.47;1.07;;;17.20;70.30;;;;;;4164515;28;20702;-81
2021/05/16 10:05:41;;;;;;;6.30;1.30;;;17.40;67.10;;;;;;4165044;28;20671;-80
2021/05/16 10:07:43;;;;;;;3.30;1.10;;;17.40;62.50;;;;;;4164240;28;20857;-81
2021/05/16 10:09:45;;;;;;;4.37;1.20;;;17.50;61.90;;;;;;4163598;28;20195;-81
2021/05/16 10:11:47;;;;;;;3.57;1.10;;;17.50;65.40;;;;;;4163931;28;20215;-81
2021/05/16 10:13:53;;;;;;;2.97;0.80;;;17.70;63.70;;;;;;4164203;28;20250;-81
2021/05/16 10:15:59;;;;;;;6.30;1.23;;;17.70;64.20;;;;;;4161857;28;20203;-79
2021/05/16 10:18:06;;;;;;;5.63;1.30;;;17.80;64.10;;;;;;4164362;28;20208;-81
2021/05/16 10:20:11;;;;;;;3.70;1.10;;;17.80;64.90;;;;;;4163641;28;20204;-82
2021/05/16 10:22:15;;;;;;;7.27;1.50;;;18.00;63.70;;;;;;4164207;28;20209;-82
2021/05/16 10:24:17;;;;;;;5.40;1.20;;;18.00;65.90;;;;;;4163650;28;20734;-81
2021/05/16 10:26:21;;;;;;;3.90;0.93;;;18.20;58.10;;;;;;4155833;28;20208;-82
2021/05/16 10:28:56;;;;;;;3.77;1.17;;;18.20;55.70;;;;;;4149254;28;20601;-82
2021/05/16 10:31:00;;;;;;;3.40;1.20;;;18.20;57.80;;;;;;4163951;28;20292;-82
2021/05/16 10:33:02;;;;;;;4.70;1.00;;;18.20;60.10;;;;;;4163799;28;20257;-80
2021/05/16 10:35:04;;;;;;;4.80;1.07;;;18.30;59.30;;;;;;4164128;28;20692;-82
2021/05/16 10:37:07;;;;;;;3.97;1.00;;;18.40;58.50;;;;;;4162686;28;20255;-81
2021/05/16 10:39:08;;;;;;;2.07;0.93;;;18.30;56.70;;;;;;4162539;28;20210;-82